TAX977 EDDS-EGLL
Flight info
| Callsign | TAX977 |
|---|---|
| Flight time | N/A |
| Altitude | 24000 |
| Route | VESID4B/25 VESID Y127 TUDGA/N0448F380 Y127 BANIM L608 LIRSU DCT DENUT L608 LOGAN |
| Aircraft | A320/M-SDE3FGHIRWY/LB1 |
Departure
| Time | 2026-05-07 15:23 |
|---|---|
| Airport | Stuttgart Airport (EDDS) |
Arrival
| Time | N/A |
|---|---|
| Airport | London Heathrow Airport (EGLL) |
| Time | Latitude | Longitude | Altitude | Speed | Heading |
|---|---|---|---|---|---|
| 2026-05-07 15:01 | 48.69224 | 9.20797 | 1285 ft | 0 kts | 345° |
| 2026-05-07 15:08 | 48.69217 | 9.20800 | 1290 ft | 4 kts | 345° |
| 2026-05-07 15:08 | 48.69195 | 9.20809 | 1289 ft | 4 kts | 4° |
| 2026-05-07 15:08 | 48.69176 | 9.20792 | 1288 ft | 4 kts | 51° |
| 2026-05-07 15:08 | 48.69168 | 9.20777 | 1286 ft | 1 kts | 50° |
| 2026-05-07 15:09 | 48.69158 | 9.20735 | 1285 ft | 4 kts | 83° |
| 2026-05-07 15:09 | 48.69152 | 9.20695 | 1287 ft | 4 kts | 74° |
| 2026-05-07 15:09 | 48.69147 | 9.20670 | 1290 ft | 4 kts | 74° |
| 2026-05-07 15:09 | 48.69140 | 9.20631 | 1289 ft | 4 kts | 69° |
| 2026-05-07 15:10 | 48.69128 | 9.20595 | 1290 ft | 4 kts | 47° |
| 2026-05-07 15:10 | 48.69115 | 9.20578 | 1290 ft | 4 kts | 326° |
| 2026-05-07 15:11 | 48.69111 | 9.20581 | 1290 ft | 0 kts | 300° |
| 2026-05-07 15:14 | 48.69118 | 9.20544 | 1289 ft | 6 kts | 272° |
| 2026-05-07 15:14 | 48.69091 | 9.20484 | 1288 ft | 8 kts | 211° |
| 2026-05-07 15:14 | 48.69040 | 9.20510 | 1289 ft | 9 kts | 138° |
| 2026-05-07 15:15 | 48.68991 | 9.20584 | 1288 ft | 11 kts | 133° |
| 2026-05-07 15:15 | 48.68934 | 9.20673 | 1288 ft | 13 kts | 135° |
| 2026-05-07 15:15 | 48.68930 | 9.20790 | 1288 ft | 14 kts | 52° |
| 2026-05-07 15:15 | 48.69000 | 9.20919 | 1288 ft | 19 kts | 63° |
| 2026-05-07 15:16 | 48.69048 | 9.21142 | 1289 ft | 23 kts | 73° |
| 2026-05-07 15:16 | 48.69097 | 9.21402 | 1290 ft | 31 kts | 73° |
| 2026-05-07 15:16 | 48.69152 | 9.21685 | 1287 ft | 33 kts | 73° |
| 2026-05-07 15:16 | 48.69217 | 9.22036 | 1285 ft | 33 kts | 74° |
| 2026-05-07 15:17 | 48.69278 | 9.22348 | 1285 ft | 30 kts | 73° |
| 2026-05-07 15:17 | 48.69325 | 9.22623 | 1288 ft | 27 kts | 73° |
| 2026-05-07 15:17 | 48.69378 | 9.22883 | 1286 ft | 24 kts | 73° |
| 2026-05-07 15:17 | 48.69426 | 9.23139 | 1289 ft | 26 kts | 74° |
| 2026-05-07 15:18 | 48.69478 | 9.23411 | 1285 ft | 27 kts | 73° |
| 2026-05-07 15:18 | 48.69528 | 9.23680 | 1289 ft | 22 kts | 73° |
| 2026-05-07 15:18 | 48.69574 | 9.23913 | 1288 ft | 24 kts | 74° |
| 2026-05-07 15:18 | 48.69606 | 9.24087 | 1285 ft | 14 kts | 79° |
| 2026-05-07 15:19 | 48.69586 | 9.24220 | 1289 ft | 12 kts | 117° |
| 2026-05-07 15:19 | 48.69530 | 9.24300 | 1287 ft | 11 kts | 161° |
| 2026-05-07 15:19 | 48.69492 | 9.24317 | 1285 ft | 0 kts | 163° |
| 2026-05-07 15:20 | 48.69490 | 9.24318 | 1285 ft | 0 kts | 163° |
| 2026-05-07 15:21 | 48.69473 | 9.24326 | 1290 ft | 7 kts | 163° |
| 2026-05-07 15:21 | 48.69432 | 9.24345 | 1287 ft | 6 kts | 163° |
| 2026-05-07 15:22 | 48.69399 | 9.24334 | 1287 ft | 7 kts | 226° |
| 2026-05-07 15:22 | 48.69386 | 9.24289 | 1287 ft | 0 kts | 252° |
| 2026-05-07 15:22 | 48.69384 | 9.24279 | 1286 ft | 6 kts | 252° |
| 2026-05-07 15:22 | 48.69325 | 9.23961 | 1285 ft | 71 kts | 255° |
| 2026-05-07 15:23 | 48.69109 | 9.22787 | 1287 ft | 155 kts | 253° |
| 2026-05-07 15:23 | 48.68881 | 9.21647 | 1566 ft | 174 kts | 256° |
| 2026-05-07 15:23 | 48.68415 | 9.19302 | 2956 ft | 186 kts | 256° |
| 2026-05-07 15:23 | 48.68047 | 9.17345 | 3565 ft | 202 kts | 256° |
| 2026-05-07 15:24 | 48.67636 | 9.15189 | 3952 ft | 225 kts | 256° |
| 2026-05-07 15:24 | 48.67181 | 9.12847 | 4674 ft | 237 kts | 255° |
| 2026-05-07 15:24 | 48.67022 | 9.10385 | 4944 ft | 238 kts | 283° |
| 2026-05-07 15:24 | 48.67450 | 9.08862 | 4998 ft | 240 kts | 302° |
| 2026-05-07 15:25 | 48.68515 | 9.06920 | 5003 ft | 240 kts | 323° |
| 2026-05-07 15:25 | 48.70066 | 9.05925 | 5013 ft | 254 kts | 345° |
| 2026-05-07 15:25 | 48.71807 | 9.05254 | 5008 ft | 261 kts | 343° |
| 2026-05-07 15:25 | 48.73549 | 9.04450 | 5006 ft | 262 kts | 340° |
| 2026-05-07 15:26 | 48.75286 | 9.03582 | 5011 ft | 263 kts | 340° |
| 2026-05-07 15:26 | 48.77016 | 9.02688 | 5007 ft | 262 kts | 338° |
| 2026-05-07 15:26 | 48.78742 | 9.01788 | 5180 ft | 270 kts | 338° |
| 2026-05-07 15:26 | 48.80842 | 9.00625 | 6535 ft | 268 kts | 336° |
| 2026-05-07 15:27 | 48.82270 | 8.99785 | 7357 ft | 271 kts | 336° |
| 2026-05-07 15:27 | 48.84042 | 8.98721 | 8293 ft | 276 kts | 336° |
| 2026-05-07 15:27 | 48.85817 | 8.97648 | 9209 ft | 281 kts | 335° |
| 2026-05-07 15:27 | 48.87651 | 8.96547 | 10121 ft | 286 kts | 336° |
| 2026-05-07 15:28 | 48.89521 | 8.95433 | 10981 ft | 290 kts | 336° |
| 2026-05-07 15:28 | 48.91425 | 8.94303 | 11638 ft | 303 kts | 336° |
| 2026-05-07 15:28 | 48.93468 | 8.93090 | 11989 ft | 326 kts | 336° |
| 2026-05-07 15:28 | 48.95613 | 8.91820 | 12649 ft | 335 kts | 337° |
| 2026-05-07 15:29 | 48.97801 | 8.90526 | 13509 ft | 338 kts | 338° |
| 2026-05-07 15:29 | 49.00008 | 8.89216 | 14304 ft | 341 kts | 338° |
| 2026-05-07 15:29 | 49.02229 | 8.87896 | 15041 ft | 345 kts | 337° |
| 2026-05-07 15:29 | 49.04473 | 8.86555 | 15731 ft | 349 kts | 337° |
| 2026-05-07 15:30 | 49.06746 | 8.85191 | 16436 ft | 353 kts | 336° |
| 2026-05-07 15:30 | 49.09047 | 8.83807 | 17163 ft | 357 kts | 336° |
| 2026-05-07 15:30 | 49.11372 | 8.82408 | 17864 ft | 362 kts | 335° |
| 2026-05-07 15:30 | 49.13673 | 8.81026 | 18524 ft | 365 kts | 336° |
| 2026-05-07 15:31 | 49.16179 | 8.79898 | 19134 ft | 372 kts | 347° |
| 2026-05-07 15:31 | 49.18778 | 8.79569 | 19742 ft | 380 kts | 359° |
| 2026-05-07 15:31 | 49.21425 | 8.79906 | 20388 ft | 383 kts | 3° |
| 2026-05-07 15:31 | 49.24088 | 8.80298 | 21009 ft | 386 kts | 3° |
| 2026-05-07 15:32 | 49.26775 | 8.80679 | 21600 ft | 389 kts | 2° |
| 2026-05-07 15:32 | 49.29485 | 8.81046 | 22180 ft | 392 kts | 2° |
| 2026-05-07 15:32 | 49.32209 | 8.81410 | 22762 ft | 395 kts | 2° |
| 2026-05-07 15:32 | 49.34960 | 8.81780 | 23332 ft | 398 kts | 2° |
| 2026-05-07 15:33 | 49.37735 | 8.82157 | 23829 ft | 402 kts | 2° |
| 2026-05-07 15:33 | 49.40529 | 8.82540 | 24005 ft | 403 kts | 2° |
| 2026-05-07 15:33 | 49.43284 | 8.82922 | 24052 ft | 391 kts | 3° |
| 2026-05-07 15:33 | 49.45965 | 8.83295 | 24055 ft | 386 kts | 3° |
| 2026-05-07 15:34 | 49.48604 | 8.83661 | 24057 ft | 385 kts | 3° |
| 2026-05-07 15:34 | 49.51305 | 8.84033 | 24044 ft | 384 kts | 3° |
| 2026-05-07 15:34 | 49.53936 | 8.84245 | 24054 ft | 383 kts | 355° |
| 2026-05-07 15:34 | 49.56583 | 8.83638 | 24055 ft | 380 kts | 343° |
| 2026-05-07 15:35 | 49.59043 | 8.82189 | 24050 ft | 377 kts | 331° |
| 2026-05-07 15:35 | 49.61209 | 8.80022 | 24053 ft | 375 kts | 319° |
| 2026-05-07 15:35 | 49.63049 | 8.77196 | 24056 ft | 374 kts | 308° |
| 2026-05-07 15:35 | 49.64714 | 8.74113 | 24064 ft | 374 kts | 309° |
| 2026-05-07 15:36 | 49.66385 | 8.71017 | 24049 ft | 374 kts | 309° |
| 2026-05-07 15:36 | 49.68051 | 8.67924 | 24051 ft | 375 kts | 309° |
| 2026-05-07 15:36 | 49.69716 | 8.64825 | 24047 ft | 375 kts | 309° |
| 2026-05-07 15:36 | 49.71381 | 8.61726 | 24050 ft | 375 kts | 310° |
| 2026-05-07 15:37 | 49.73217 | 8.58859 | 24047 ft | 375 kts | 316° |
| 2026-05-07 15:37 | 49.75128 | 8.56094 | 24051 ft | 376 kts | 316° |
| 2026-05-07 15:37 | 49.77037 | 8.53330 | 24048 ft | 376 kts | 316° |
| 2026-05-07 15:37 | 49.78940 | 8.50567 | 24047 ft | 376 kts | 316° |
| 2026-05-07 15:38 | 49.80842 | 8.47797 | 24050 ft | 376 kts | 316° |
| 2026-05-07 15:38 | 49.82740 | 8.45001 | 24049 ft | 375 kts | 313° |
| 2026-05-07 15:38 | 49.84381 | 8.41876 | 24049 ft | 374 kts | 302° |
| 2026-05-07 15:38 | 49.85615 | 8.38335 | 24052 ft | 374 kts | 292° |
| 2026-05-07 15:39 | 49.86463 | 8.34527 | 24050 ft | 373 kts | 287° |
| 2026-05-07 15:39 | 49.87249 | 8.30749 | 24056 ft | 374 kts | 288° |
| 2026-05-07 15:39 | 49.88053 | 8.26912 | 24054 ft | 374 kts | 288° |
| 2026-05-07 15:39 | 49.88862 | 8.23072 | 24057 ft | 374 kts | 288° |
| 2026-05-07 15:40 | 49.89668 | 8.19240 | 24060 ft | 374 kts | 288° |
| 2026-05-07 15:40 | 49.90473 | 8.15399 | 24058 ft | 374 kts | 288° |
| 2026-05-07 15:40 | 49.91275 | 8.11568 | 24057 ft | 374 kts | 288° |
| 2026-05-07 15:40 | 49.92079 | 8.07727 | 24055 ft | 374 kts | 288° |
| 2026-05-07 15:41 | 49.92852 | 8.04010 | 24059 ft | 374 kts | 288° |
| 2026-05-07 15:41 | 49.93676 | 8.00042 | 24058 ft | 374 kts | 288° |
| 2026-05-07 15:41 | 49.94430 | 7.96181 | 24066 ft | 374 kts | 283° |
| 2026-05-07 15:41 | 49.94835 | 7.92199 | 24066 ft | 374 kts | 277° |
| 2026-05-07 15:42 | 49.95151 | 7.88191 | 24064 ft | 374 kts | 277° |
| 2026-05-07 15:42 | 49.95471 | 7.84183 | 24064 ft | 374 kts | 277° |
| 2026-05-07 15:42 | 49.95793 | 7.80180 | 24053 ft | 374 kts | 277° |
| 2026-05-07 15:42 | 49.96110 | 7.76219 | 24059 ft | 374 kts | 277° |
| 2026-05-07 15:43 | 49.96431 | 7.72213 | 24061 ft | 373 kts | 277° |
| 2026-05-07 15:43 | 49.96749 | 7.68203 | 24060 ft | 373 kts | 277° |
| 2026-05-07 15:43 | 49.97061 | 7.64206 | 24057 ft | 373 kts | 277° |
| 2026-05-07 15:43 | 49.97369 | 7.60207 | 24057 ft | 373 kts | 276° |
| 2026-05-07 15:44 | 49.97673 | 7.56215 | 24048 ft | 373 kts | 276° |
| 2026-05-07 15:44 | 49.97979 | 7.52211 | 24049 ft | 373 kts | 276° |
| 2026-05-07 15:44 | 49.98287 | 7.48201 | 24068 ft | 373 kts | 276° |
| 2026-05-07 15:44 | 49.98594 | 7.44207 | 24070 ft | 373 kts | 276° |
| 2026-05-07 15:45 | 49.98903 | 7.40202 | 24063 ft | 373 kts | 276° |
| 2026-05-07 15:45 | 49.99208 | 7.36201 | 24071 ft | 373 kts | 276° |
| 2026-05-07 15:45 | 49.99512 | 7.32204 | 24070 ft | 373 kts | 276° |
| 2026-05-07 15:45 | 49.99815 | 7.28210 | 24074 ft | 372 kts | 276° |
| 2026-05-07 15:46 | 50.00420 | 7.20214 | 24079 ft | 372 kts | 276° |
| 2026-05-07 15:46 | 50.00717 | 7.16223 | 24077 ft | 371 kts | 276° |
| 2026-05-07 15:46 | 50.01009 | 7.12240 | 24075 ft | 371 kts | 276° |
| 2026-05-07 15:47 | 50.01298 | 7.08258 | 24066 ft | 371 kts | 276° |
| 2026-05-07 15:47 | 50.01586 | 7.04277 | 24063 ft | 370 kts | 276° |
| 2026-05-07 15:47 | 50.01872 | 7.00296 | 24065 ft | 370 kts | 276° |
| 2026-05-07 15:47 | 50.02156 | 6.96369 | 24061 ft | 370 kts | 276° |
| 2026-05-07 15:48 | 50.02553 | 6.92411 | 24053 ft | 371 kts | 283° |
| 2026-05-07 15:48 | 50.03395 | 6.88617 | 24046 ft | 372 kts | 294° |
| 2026-05-07 15:48 | 50.04575 | 6.85181 | 24053 ft | 372 kts | 297° |
| 2026-05-07 15:48 | 50.05875 | 6.81558 | 24052 ft | 372 kts | 297° |
| 2026-05-07 15:49 | 50.07131 | 6.78035 | 24051 ft | 372 kts | 297° |
| 2026-05-07 15:49 | 50.08387 | 6.74497 | 24052 ft | 372 kts | 297° |
| 2026-05-07 15:49 | 50.09636 | 6.70971 | 24046 ft | 372 kts | 297° |
| 2026-05-07 15:49 | 50.10886 | 6.67435 | 24043 ft | 372 kts | 297° |
| 2026-05-07 15:50 | 50.12135 | 6.63898 | 24045 ft | 372 kts | 297° |
| 2026-05-07 15:50 | 50.13384 | 6.60365 | 24045 ft | 372 kts | 297° |
| 2026-05-07 15:50 | 50.14635 | 6.56817 | 24045 ft | 372 kts | 297° |
| 2026-05-07 15:50 | 50.15882 | 6.53275 | 24039 ft | 373 kts | 297° |
| 2026-05-07 15:51 | 50.17127 | 6.49728 | 24039 ft | 373 kts | 297° |
| 2026-05-07 15:51 | 50.18372 | 6.46180 | 24042 ft | 373 kts | 297° |
| 2026-05-07 15:51 | 50.19639 | 6.42658 | 24044 ft | 372 kts | 298° |
| 2026-05-07 15:51 | 50.20957 | 6.39239 | 24047 ft | 373 kts | 300° |
| 2026-05-07 15:52 | 50.22350 | 6.35772 | 24041 ft | 371 kts | 300° |
| 2026-05-07 15:52 | 50.23692 | 6.32476 | 24029 ft | 357 kts | 300° |
| 2026-05-07 15:52 | 50.25010 | 6.29228 | 24034 ft | 343 kts | 300° |
| 2026-05-07 15:52 | 50.26240 | 6.26167 | 24044 ft | 330 kts | 300° |
| 2026-05-07 15:53 | 50.27429 | 6.23171 | 24047 ft | 318 kts | 300° |
| 2026-05-07 15:53 | 50.28562 | 6.20284 | 24048 ft | 306 kts | 299° |
| 2026-05-07 15:53 | 50.29653 | 6.17498 | 24048 ft | 295 kts | 299° |
| 2026-05-07 15:53 | 50.30703 | 6.14809 | 24048 ft | 284 kts | 299° |
| 2026-05-07 15:54 | 50.31713 | 6.12220 | 24047 ft | 273 kts | 299° |
| 2026-05-07 15:54 | 50.32682 | 6.09734 | 24047 ft | 262 kts | 299° |
| 2026-05-07 15:54 | 50.33614 | 6.07343 | 24046 ft | 251 kts | 299° |
| 2026-05-07 15:54 | 50.34505 | 6.05056 | 24045 ft | 240 kts | 298° |
| 2026-05-07 15:55 | 50.35357 | 6.02861 | 23956 ft | 234 kts | 298° |
| 2026-05-07 15:55 | 50.36171 | 6.00743 | 23624 ft | 243 kts | 298° |
| 2026-05-07 15:55 | 50.37093 | 5.98380 | 23863 ft | 251 kts | 302° |
| 2026-05-07 15:55 | 50.38086 | 5.96018 | 24045 ft | 271 kts | 300° |
| 2026-05-07 15:56 | 50.39111 | 5.93384 | 24053 ft | 295 kts | 299° |
| 2026-05-07 15:56 | 50.40201 | 5.90511 | 24062 ft | 318 kts | 299° |
| 2026-05-07 15:56 | 50.41369 | 5.87424 | 24059 ft | 340 kts | 299° |
| 2026-05-07 15:56 | 50.42620 | 5.84146 | 24063 ft | 360 kts | 300° |
| 2026-05-07 15:57 | 50.43919 | 5.80764 | 24056 ft | 370 kts | 300° |
| 2026-05-07 15:57 | 50.45258 | 5.77290 | 24059 ft | 373 kts | 300° |
| 2026-05-07 15:57 | 50.46602 | 5.73804 | 24070 ft | 374 kts | 300° |
| 2026-05-07 15:57 | 50.47951 | 5.70307 | 24070 ft | 374 kts | 300° |
| 2026-05-07 15:58 | 50.49303 | 5.66804 | 24070 ft | 374 kts | 300° |
| 2026-05-07 15:58 | 50.50642 | 5.63327 | 24069 ft | 374 kts | 300° |
| 2026-05-07 15:58 | 50.51984 | 5.59828 | 24072 ft | 374 kts | 300° |
| 2026-05-07 15:58 | 50.53323 | 5.56332 | 24083 ft | 374 kts | 300° |
| 2026-05-07 15:59 | 50.54663 | 5.52824 | 24077 ft | 374 kts | 299° |
| 2026-05-07 15:59 | 50.56001 | 5.49313 | 24076 ft | 373 kts | 299° |
| 2026-05-07 15:59 | 50.57336 | 5.45809 | 24078 ft | 373 kts | 299° |
| 2026-05-07 15:59 | 50.58667 | 5.42314 | 24079 ft | 373 kts | 299° |
| 2026-05-07 16:00 | 50.60006 | 5.38801 | 24080 ft | 373 kts | 299° |
| 2026-05-07 16:00 | 50.61339 | 5.35305 | 24083 ft | 373 kts | 299° |
| 2026-05-07 16:00 | 50.62676 | 5.31789 | 24089 ft | 373 kts | 299° |
| 2026-05-07 16:00 | 50.64007 | 5.28281 | 24089 ft | 373 kts | 299° |
| 2026-05-07 16:01 | 50.65337 | 5.24763 | 24088 ft | 373 kts | 299° |
| 2026-05-07 16:01 | 50.66644 | 5.21291 | 24087 ft | 373 kts | 299° |
| 2026-05-07 16:01 | 50.67972 | 5.17769 | 24086 ft | 373 kts | 299° |
| 2026-05-07 16:01 | 50.69300 | 5.14245 | 24085 ft | 373 kts | 299° |
| 2026-05-07 16:02 | 50.70624 | 5.10730 | 24081 ft | 373 kts | 299° |
| 2026-05-07 16:02 | 50.71948 | 5.07214 | 24079 ft | 373 kts | 299° |
| 2026-05-07 16:02 | 50.73269 | 5.03692 | 24082 ft | 373 kts | 299° |
| 2026-05-07 16:02 | 50.74590 | 5.00161 | 24081 ft | 373 kts | 299° |
| 2026-05-07 16:03 | 50.75905 | 4.96641 | 24083 ft | 373 kts | 299° |
| 2026-05-07 16:03 | 50.77224 | 4.93111 | 24084 ft | 373 kts | 299° |
| 2026-05-07 16:03 | 50.78540 | 4.89590 | 24084 ft | 372 kts | 298° |
| 2026-05-07 16:03 | 50.79855 | 4.86067 | 24081 ft | 372 kts | 298° |
| 2026-05-07 16:04 | 50.81168 | 4.82540 | 24080 ft | 372 kts | 298° |
| 2026-05-07 16:04 | 50.82483 | 4.79001 | 24080 ft | 372 kts | 298° |
| 2026-05-07 16:04 | 50.83793 | 4.75466 | 24081 ft | 372 kts | 298° |
| 2026-05-07 16:04 | 50.85102 | 4.71928 | 24080 ft | 372 kts | 298° |
| 2026-05-07 16:05 | 50.86410 | 4.68389 | 24092 ft | 372 kts | 298° |
| 2026-05-07 16:05 | 50.87716 | 4.64855 | 24087 ft | 372 kts | 298° |
| 2026-05-07 16:05 | 50.89009 | 4.61359 | 24088 ft | 372 kts | 298° |
| 2026-05-07 16:05 | 50.90315 | 4.57815 | 24089 ft | 372 kts | 298° |
| 2026-05-07 16:06 | 50.91615 | 4.54281 | 24088 ft | 372 kts | 298° |
| 2026-05-07 16:06 | 50.92920 | 4.50731 | 24088 ft | 372 kts | 298° |
| 2026-05-07 16:06 | 50.94222 | 4.47186 | 24089 ft | 372 kts | 298° |
| 2026-05-07 16:06 | 50.95526 | 4.43639 | 24088 ft | 372 kts | 298° |
| 2026-05-07 16:07 | 50.96826 | 4.40090 | 24089 ft | 372 kts | 298° |
| 2026-05-07 16:07 | 50.98120 | 4.36543 | 24088 ft | 372 kts | 298° |